createdAt,value
2022-07-29T00:00:01.017Z,0.52
2022-07-29T00:02:28.496Z,0.40
2022-07-29T00:04:55.169Z,0.28
2022-07-29T00:07:21.639Z,0.25
2022-07-29T00:09:51.892Z,0.60
2022-07-29T00:12:25.370Z,0.50
2022-07-29T00:14:56.600Z,0.65
2022-07-29T00:17:26.633Z,0.47
2022-07-29T00:19:53.138Z,0.50
2022-07-29T00:22:20.402Z,0.82
2022-07-29T00:24:48.583Z,0.60
2022-07-29T00:27:15.027Z,0.55
2022-07-29T00:29:41.461Z,0.70
2022-07-29T00:32:07.988Z,0.73
2022-07-29T00:34:53.116Z,0.50
2022-07-29T00:37:19.706Z,0.30
2022-07-29T00:39:46.230Z,1.48
2022-07-29T00:42:12.735Z,0.55
2022-07-29T00:44:40.475Z,0.38
2022-07-29T00:47:07.914Z,0.80
2022-07-29T00:49:35.221Z,0.40
2022-07-29T00:52:03.780Z,0.45
2022-07-29T00:54:31.125Z,0.50
2022-07-29T00:56:59.644Z,0.77
2022-07-29T00:59:34.440Z,0.40
2022-07-29T01:02:02.441Z,0.52
2022-07-29T01:04:30.621Z,0.55
2022-07-29T01:06:57.718Z,1.17
2022-07-29T01:09:42.849Z,0.75
2022-07-29T01:12:17.980Z,1.60
2022-07-29T01:14:44.631Z,0.47
2022-07-29T01:17:30.146Z,0.73
2022-07-29T01:20:09.552Z,0.55
2022-07-29T01:22:45.872Z,0.68
2022-07-29T01:25:33.724Z,0.50
2022-07-29T01:28:23.008Z,0.77
2022-07-29T01:30:53.066Z,0.60
2022-07-29T01:33:40.308Z,0.50
2022-07-29T01:36:14.351Z,0.50
2022-07-29T01:38:43.232Z,0.50
2022-07-29T01:41:13.975Z,0.80
2022-07-29T01:43:56.007Z,0.50
2022-07-29T01:46:28.576Z,0.45
2022-07-29T01:48:58.853Z,0.40
2022-07-29T01:51:46.337Z,0.32
2022-07-29T01:54:40.054Z,0.65
2022-07-29T01:57:09.318Z,0.50
2022-07-29T01:59:37.311Z,0.88
2022-07-29T02:02:03.967Z,0.50
2022-07-29T02:04:31.226Z,0.82
2022-07-29T02:07:02.014Z,0.77
2022-07-29T02:09:29.801Z,0.55
2022-07-29T02:11:57.066Z,1.73
2022-07-29T02:14:24.240Z,1.25
2022-07-29T02:16:54.035Z,0.80
2022-07-29T02:19:23.250Z,1.35
2022-07-29T02:21:54.797Z,1.38
2022-07-29T02:24:22.134Z,1.02
2022-07-29T02:26:50.511Z,1.65
2022-07-29T02:29:17.717Z,1.20
2022-07-29T02:31:45.476Z,1.75
2022-07-29T02:34:13.090Z,1.23
2022-07-29T02:36:40.615Z,1.60
2022-07-29T02:39:08.294Z,1.15
2022-07-29T02:41:44.516Z,2.03
2022-07-29T02:44:17.131Z,1.70
2022-07-29T02:46:51.866Z,2.38
2022-07-29T02:49:36.590Z,2.55
2022-07-29T02:52:17.498Z,2.58
2022-07-29T02:54:56.266Z,1.80
2022-07-29T02:57:35.035Z,1.52
2022-07-29T03:00:12.183Z,1.85
2022-07-29T03:02:42.227Z,2.30
2022-07-29T03:05:10.573Z,2.20
2022-07-29T03:07:37.510Z,1.00
2022-07-29T03:10:04.663Z,2.55
2022-07-29T03:12:31.682Z,1.33
2022-07-29T03:14:58.562Z,1.88
2022-07-29T03:17:25.650Z,2.58
2022-07-29T03:19:52.288Z,1.77
2022-07-29T03:22:19.145Z,1.95
2022-07-29T03:24:46.002Z,2.80
2022-07-29T03:27:14.894Z,2.10
2022-07-29T03:29:41.356Z,2.50
2022-07-29T03:32:16.196Z,2.90
2022-07-29T03:34:50.387Z,3.03
2022-07-29T03:37:16.881Z,2.60
2022-07-29T03:39:43.961Z,2.80
2022-07-29T03:42:13.134Z,2.00
2022-07-29T03:44:43.018Z,2.92
2022-07-29T03:47:10.567Z,3.35
2022-07-29T03:49:38.040Z,2.47
2022-07-29T03:52:04.980Z,1.95
2022-07-29T03:54:31.459Z,1.92
2022-07-29T03:57:00.805Z,1.60
2022-07-29T03:59:28.140Z,2.38
2022-07-29T04:01:56.627Z,1.70
2022-07-29T04:04:23.160Z,1.95
2022-07-29T04:06:49.786Z,2.33
2022-07-29T04:09:16.246Z,1.85
2022-07-29T04:12:01.756Z,2.25
2022-07-29T04:14:29.685Z,1.33
2022-07-29T04:16:56.316Z,2.17
2022-07-29T04:19:23.499Z,1.85
2022-07-29T04:21:50.038Z,2.47
2022-07-29T04:24:17.166Z,2.13
2022-07-29T04:26:44.023Z,2.13
2022-07-29T04:29:10.801Z,2.28
2022-07-29T04:31:37.459Z,3.47
2022-07-29T04:34:04.063Z,2.55
2022-07-29T04:36:30.484Z,2.85
2022-07-29T04:38:57.075Z,2.97
2022-07-29T04:41:23.696Z,2.50
2022-07-29T04:44:01.895Z,3.25
2022-07-29T04:46:29.068Z,2.22
2022-07-29T04:48:55.825Z,2.70
2022-07-29T04:51:22.377Z,2.85
2022-07-29T04:53:48.898Z,3.00
2022-07-29T04:56:15.634Z,2.78
2022-07-29T04:58:42.082Z,2.35
2022-07-29T05:01:08.793Z,3.15
2022-07-29T05:03:35.284Z,2.88
2022-07-29T05:06:01.985Z,2.22
2022-07-29T05:08:28.406Z,3.88
2022-07-29T05:10:55.030Z,2.28
2022-07-29T05:13:21.458Z,3.25
2022-07-29T05:15:48.042Z,3.17
2022-07-29T05:18:15.136Z,4.50
2022-07-29T05:20:41.938Z,3.28
2022-07-29T05:23:08.373Z,4.47
2022-07-29T05:25:42.958Z,3.55
2022-07-29T05:28:12.215Z,3.22
2022-07-29T05:30:38.837Z,4.15
2022-07-29T05:33:05.288Z,3.72
2022-07-29T05:35:31.786Z,4.15
2022-07-29T05:37:58.475Z,2.85
2022-07-29T05:40:25.061Z,3.38
2022-07-29T05:42:51.459Z,4.00
2022-07-29T05:45:18.003Z,3.65
2022-07-29T05:47:44.471Z,3.13
2022-07-29T05:50:10.985Z,4.70
2022-07-29T05:52:37.415Z,3.50
2022-07-29T05:55:06.382Z,3.15
2022-07-29T05:57:33.070Z,4.38
2022-07-29T05:59:59.598Z,2.95
2022-07-29T06:02:26.133Z,3.67
2022-07-29T06:04:53.487Z,3.58
2022-07-29T06:07:20.133Z,4.63
2022-07-29T06:09:46.586Z,3.35
2022-07-29T06:12:13.072Z,4.13
2022-07-29T06:14:39.774Z,4.57
2022-07-29T06:17:06.697Z,3.70
2022-07-29T06:19:35.313Z,3.13
2022-07-29T06:22:01.786Z,4.25
2022-07-29T06:24:28.249Z,3.53
2022-07-29T06:26:54.837Z,3.60
2022-07-29T06:29:21.302Z,2.22
2022-07-29T06:31:48.910Z,2.65
2022-07-29T06:34:16.670Z,2.75
2022-07-29T06:36:44.185Z,3.00
2022-07-29T06:39:11.742Z,2.35
2022-07-29T06:41:38.929Z,2.78
2022-07-29T06:44:05.683Z,2.70
2022-07-29T06:46:33.156Z,3.38
2022-07-29T06:49:01.565Z,3.05
2022-07-29T06:51:28.505Z,2.80
2022-07-29T06:54:00.003Z,2.88
2022-07-29T06:56:39.478Z,2.65
2022-07-29T06:59:08.424Z,3.58
2022-07-29T07:01:35.497Z,2.88
2022-07-29T07:04:02.018Z,2.55
2022-07-29T07:06:28.665Z,3.22
2022-07-29T07:08:55.321Z,2.95
2022-07-29T07:11:21.780Z,3.05
2022-07-29T07:13:48.256Z,3.40
2022-07-29T07:16:14.847Z,2.40
2022-07-29T07:18:41.503Z,3.10
2022-07-29T07:21:08.164Z,3.50
2022-07-29T07:23:34.653Z,2.95
2022-07-29T07:26:01.171Z,2.78
2022-07-29T07:28:27.625Z,3.55
2022-07-29T07:30:54.077Z,3.20
2022-07-29T07:33:20.543Z,3.55
2022-07-29T07:35:47.342Z,3.25
2022-07-29T07:38:14.147Z,3.03
2022-07-29T07:40:41.116Z,3.22
2022-07-29T07:43:07.597Z,4.18
2022-07-29T07:45:34.727Z,3.58
2022-07-29T07:48:01.241Z,3.63
2022-07-29T07:50:27.858Z,4.03
2022-07-29T07:52:58.506Z,4.38
2022-07-29T07:55:26.398Z,4.20
2022-07-29T07:57:52.990Z,3.58
2022-07-29T08:00:22.942Z,3.75
2022-07-29T08:02:50.931Z,4.13
2022-07-29T08:05:19.617Z,3.80
2022-07-29T08:07:47.421Z,3.47
2022-07-29T08:10:15.604Z,3.35
2022-07-29T08:12:43.605Z,3.25
2022-07-29T08:15:10.322Z,3.17
2022-07-29T08:17:37.287Z,3.13
2022-07-29T08:20:04.624Z,3.28
2022-07-29T08:22:31.111Z,3.17
2022-07-29T08:24:57.586Z,3.08
2022-07-29T08:27:42.910Z,2.75
2022-07-29T08:30:11.242Z,3.58
2022-07-29T08:32:53.131Z,3.60
2022-07-29T08:35:23.849Z,3.30
2022-07-29T08:37:50.563Z,3.05
2022-07-29T08:40:17.072Z,3.33
2022-07-29T08:42:43.638Z,3.33
2022-07-29T08:45:10.620Z,3.65
2022-07-29T08:47:40.707Z,3.47
2022-07-29T08:50:10.828Z,3.63
2022-07-29T08:52:40.423Z,3.30
2022-07-29T08:55:10.024Z,3.90
2022-07-29T08:57:37.244Z,3.55
2022-07-29T09:00:07.953Z,3.25
2022-07-29T09:02:41.217Z,3.50
2022-07-29T09:05:09.127Z,4.13
2022-07-29T09:07:36.169Z,3.03
2022-07-29T09:10:02.802Z,3.53
2022-07-29T09:12:32.720Z,3.70
2022-07-29T09:15:01.290Z,2.67
2022-07-29T09:17:47.572Z,2.65
2022-07-29T09:20:16.438Z,3.13
2022-07-29T09:22:43.048Z,3.22
2022-07-29T09:25:10.100Z,2.90
2022-07-29T09:27:36.983Z,2.72
2022-07-29T09:30:11.366Z,3.05
2022-07-29T09:32:57.470Z,2.75
2022-07-29T09:35:25.754Z,2.47
2022-07-29T09:37:52.737Z,2.40
2022-07-29T09:40:22.246Z,2.58
2022-07-29T09:42:49.307Z,2.42
2022-07-29T09:45:32.624Z,2.47
2022-07-29T09:48:04.528Z,2.50
2022-07-29T09:50:39.226Z,1.85
2022-07-29T09:53:05.711Z,2.40
2022-07-29T09:55:32.357Z,1.95
2022-07-29T09:58:18.382Z,2.30
2022-07-29T10:00:46.932Z,2.75
2022-07-29T10:03:15.191Z,2.33
2022-07-29T10:05:43.085Z,2.47
2022-07-29T10:08:10.781Z,2.47
2022-07-29T10:10:42.637Z,3.38
2022-07-29T10:13:16.496Z,2.72
2022-07-29T10:15:46.150Z,2.50
2022-07-29T10:18:14.608Z,2.63
2022-07-29T10:20:42.688Z,2.13
2022-07-29T10:23:10.181Z,2.55
2022-07-29T10:25:36.687Z,2.60
2022-07-29T10:28:03.777Z,2.50
2022-07-29T10:30:30.667Z,2.42
2022-07-29T10:33:10.696Z,2.88
2022-07-29T10:36:15.552Z,2.08
2022-07-29T10:38:48.163Z,1.63
2022-07-29T10:41:43.997Z,2.55
2022-07-29T10:44:23.705Z,1.75
2022-07-29T10:46:51.617Z,2.00
2022-07-29T10:49:27.107Z,3.05
2022-07-29T10:52:03.564Z,1.80
2022-07-29T10:54:48.805Z,2.45
2022-07-29T10:57:52.634Z,1.73
2022-07-29T11:00:17.023Z,2.00
2022-07-29T11:02:46.425Z,1.98
2022-07-29T11:05:19.851Z,1.80
2022-07-29T11:08:19.684Z,1.70
2022-07-29T11:10:48.581Z,1.40
2022-07-29T11:13:44.667Z,1.20
2022-07-29T11:16:13.214Z,1.30
2022-07-29T11:19:14.313Z,1.20
2022-07-29T11:21:53.866Z,1.23
2022-07-29T11:24:33.037Z,1.00
2022-07-29T11:27:22.974Z,0.90
2022-07-29T11:29:58.562Z,1.35
2022-07-29T11:32:29.220Z,0.85
2022-07-29T11:35:37.989Z,1.20
2022-07-29T11:38:28.058Z,0.80
2022-07-29T11:41:27.195Z,0.98
2022-07-29T11:43:59.094Z,1.17
2022-07-29T11:46:45.169Z,0.90
2022-07-29T11:49:15.457Z,0.73
2022-07-29T11:51:48.131Z,1.08
2022-07-29T11:54:16.473Z,0.77
2022-07-29T11:56:46.713Z,0.80
2022-07-29T11:59:15.223Z,1.35
2022-07-29T12:02:06.658Z,1.00
2022-07-29T12:04:57.828Z,0.70
2022-07-29T12:07:34.720Z,1.00
2022-07-29T12:10:03.433Z,1.33
2022-07-29T12:12:29.989Z,1.33
2022-07-29T12:14:56.614Z,1.10
2022-07-29T12:17:34.247Z,1.20
2022-07-29T12:20:03.945Z,0.80
2022-07-29T12:22:32.989Z,1.20
2022-07-29T12:25:31.987Z,1.23
2022-07-29T12:28:06.229Z,0.80
2022-07-29T12:30:47.275Z,1.15
2022-07-29T12:33:40.583Z,0.90
2022-07-29T12:36:10.364Z,1.17
2022-07-29T12:38:41.589Z,2.00
2022-07-29T12:41:08.217Z,1.45
2022-07-29T12:43:34.913Z,1.60
2022-07-29T12:46:13.765Z,2.08
2022-07-29T12:48:42.396Z,2.95
2022-07-29T12:51:10.029Z,1.48
2022-07-29T12:53:37.383Z,2.13
2022-07-29T12:56:15.596Z,1.60
2022-07-29T12:58:51.164Z,1.60
2022-07-29T13:01:20.386Z,1.50
2022-07-29T13:03:56.886Z,2.47
2022-07-29T13:06:49.689Z,1.98
2022-07-29T13:09:23.458Z,2.45
2022-07-29T13:11:52.018Z,2.25
2022-07-29T13:14:32.920Z,1.98
2022-07-29T13:17:11.708Z,1.90
2022-07-29T13:19:49.363Z,2.60
2022-07-29T13:22:20.364Z,2.53
2022-07-29T13:24:50.605Z,2.95
2022-07-29T13:27:18.607Z,1.77
2022-07-29T13:29:45.295Z,2.58
2022-07-29T13:32:12.805Z,3.13
2022-07-29T13:34:39.267Z,2.70
2022-07-29T13:37:05.914Z,2.33
2022-07-29T13:39:32.323Z,2.50
2022-07-29T13:41:59.050Z,1.75
2022-07-29T13:44:26.738Z,2.03
2022-07-29T13:46:53.210Z,1.70
2022-07-29T13:49:19.670Z,1.70
2022-07-29T13:51:46.148Z,1.20
2022-07-29T13:54:12.570Z,1.35
2022-07-29T13:56:39.056Z,1.30
2022-07-29T13:59:05.477Z,1.40
2022-07-29T14:01:32.014Z,1.42
2022-07-29T14:03:58.485Z,1.40
2022-07-29T14:06:25.104Z,1.17
2022-07-29T14:08:51.993Z,1.70
2022-07-29T14:11:18.462Z,0.95
2022-07-29T14:13:45.302Z,1.48
2022-07-29T14:16:11.843Z,1.20
2022-07-29T14:18:38.284Z,1.30
2022-07-29T14:21:04.843Z,1.70
2022-07-29T14:23:31.327Z,1.23
2022-07-29T14:25:58.299Z,1.05
2022-07-29T14:28:24.734Z,1.55
2022-07-29T14:30:51.216Z,1.10
2022-07-29T14:33:17.711Z,1.20
2022-07-29T14:35:44.685Z,1.10
2022-07-29T14:38:11.129Z,1.23
2022-07-29T14:40:37.807Z,1.70
2022-07-29T14:43:04.862Z,1.17
2022-07-29T14:45:31.468Z,1.02
2022-07-29T14:47:58.266Z,1.50
2022-07-29T14:50:31.132Z,1.70
2022-07-29T14:52:58.904Z,1.30
2022-07-29T14:55:25.480Z,1.17
2022-07-29T14:57:53.413Z,1.30
2022-07-29T15:00:23.404Z,1.80
2022-07-29T15:03:01.854Z,1.50
2022-07-29T15:05:29.580Z,1.70
2022-07-29T15:07:56.305Z,1.63
2022-07-29T15:10:22.794Z,2.72
2022-07-29T15:12:51.415Z,3.33
2022-07-29T15:15:17.906Z,2.80
2022-07-29T15:17:44.491Z,3.35
2022-07-29T15:20:12.641Z,3.45
2022-07-29T15:22:39.397Z,3.55
2022-07-29T15:25:06.730Z,3.38
2022-07-29T15:27:33.333Z,2.85
2022-07-29T15:29:59.796Z,3.08
2022-07-29T15:32:26.242Z,2.67
2022-07-29T15:34:52.707Z,2.78
2022-07-29T15:37:19.228Z,3.20
2022-07-29T15:39:45.619Z,3.05
2022-07-29T15:42:12.133Z,2.92
2022-07-29T15:44:38.654Z,2.63
2022-07-29T15:47:08.111Z,3.25
2022-07-29T15:49:47.970Z,2.83
2022-07-29T15:52:18.966Z,3.90
2022-07-29T15:54:46.828Z,2.90
2022-07-29T15:57:13.672Z,2.85
2022-07-29T15:59:40.125Z,3.03
2022-07-29T16:02:06.849Z,4.30
2022-07-29T16:04:33.313Z,3.40
2022-07-29T16:07:00.326Z,2.80
2022-07-29T16:09:27.774Z,3.38
2022-07-29T16:11:54.344Z,3.13
2022-07-29T16:14:21.298Z,2.80
2022-07-29T16:16:48.210Z,3.47
2022-07-29T16:19:14.989Z,2.92
2022-07-29T16:21:41.421Z,2.65
2022-07-29T16:24:08.434Z,2.83
2022-07-29T16:26:35.482Z,2.22
2022-07-29T16:29:02.020Z,2.22
2022-07-29T16:31:28.551Z,2.25
2022-07-29T16:33:56.013Z,2.58
2022-07-29T16:36:22.829Z,2.28
2022-07-29T16:38:50.867Z,1.98
2022-07-29T16:41:17.312Z,2.28
2022-07-29T16:43:43.849Z,2.00
2022-07-29T16:46:13.096Z,2.30
2022-07-29T16:48:45.457Z,1.88
2022-07-29T16:51:12.152Z,2.55
2022-07-29T16:53:41.129Z,1.80
2022-07-29T16:56:07.545Z,1.90
2022-07-29T16:58:40.517Z,1.45
2022-07-29T17:01:09.922Z,1.88
2022-07-29T17:03:36.510Z,1.80
2022-07-29T17:06:03.074Z,1.80
2022-07-29T17:08:29.578Z,1.13
2022-07-29T17:10:56.008Z,1.30
2022-07-29T17:13:22.455Z,1.17
2022-07-29T17:15:49.024Z,1.23
2022-07-29T17:18:15.487Z,1.30
2022-07-29T17:20:42.118Z,1.75
2022-07-29T17:23:08.948Z,1.35
2022-07-29T17:25:35.494Z,1.65
2022-07-29T17:28:01.941Z,1.33
2022-07-29T17:30:29.383Z,1.30
2022-07-29T17:32:55.961Z,1.10
2022-07-29T17:35:41.202Z,1.23
2022-07-29T17:38:07.723Z,0.98
2022-07-29T17:40:34.177Z,1.40
2022-07-29T17:43:00.656Z,1.30
2022-07-29T17:45:49.537Z,1.45
2022-07-29T17:48:14.183Z,1.15
2022-07-29T17:50:40.695Z,1.10
2022-07-29T17:53:09.674Z,1.25
2022-07-29T17:55:45.318Z,0.90
2022-07-29T17:58:12.081Z,1.63
2022-07-29T18:00:39.209Z,1.67
2022-07-29T18:03:05.899Z,1.40
2022-07-29T18:05:32.833Z,1.60
2022-07-29T18:07:59.403Z,1.05
2022-07-29T18:10:25.963Z,1.58
2022-07-29T18:12:52.528Z,1.30
2022-07-29T18:15:19.843Z,1.60
2022-07-29T18:17:57.277Z,0.88
2022-07-29T18:20:28.029Z,1.20
2022-07-29T18:22:54.836Z,1.20
2022-07-29T18:25:22.040Z,1.05
2022-07-29T18:27:48.466Z,0.88
2022-07-29T18:30:15.656Z,1.45
2022-07-29T18:32:59.276Z,1.70
2022-07-29T18:35:30.289Z,2.22
2022-07-29T18:38:00.782Z,1.13
2022-07-29T18:40:29.396Z,1.25
2022-07-29T18:42:56.299Z,1.83
2022-07-29T18:45:22.759Z,1.00
2022-07-29T18:47:54.912Z,1.20
2022-07-29T18:50:28.792Z,1.05
2022-07-29T18:52:58.648Z,1.30
2022-07-29T18:55:25.986Z,1.23
2022-07-29T18:57:54.478Z,1.00
2022-07-29T19:00:23.979Z,0.93
2022-07-29T19:02:50.976Z,1.50
2022-07-29T19:05:17.657Z,1.33
2022-07-29T19:07:44.149Z,0.90
2022-07-29T19:10:11.270Z,0.90
2022-07-29T19:12:38.110Z,0.82
2022-07-29T19:15:04.818Z,1.75
2022-07-29T19:17:31.309Z,1.05
2022-07-29T19:19:57.786Z,2.15
2022-07-29T19:22:24.344Z,1.50
2022-07-29T19:24:51.010Z,1.10
2022-07-29T19:27:17.766Z,1.25
2022-07-29T19:29:44.410Z,1.27
2022-07-29T19:32:10.932Z,1.73
2022-07-29T19:34:38.234Z,1.20
2022-07-29T19:37:04.769Z,1.83
2022-07-29T19:39:35.257Z,1.42
2022-07-29T19:42:03.474Z,1.80
2022-07-29T19:44:30.288Z,1.95
2022-07-29T19:46:57.293Z,1.38
2022-07-29T19:49:24.079Z,1.25
2022-07-29T19:51:50.624Z,1.27
2022-07-29T19:54:19.868Z,1.10
2022-07-29T19:56:47.391Z,1.10
2022-07-29T19:59:14.455Z,1.30
2022-07-29T20:01:41.243Z,1.40
2022-07-29T20:04:07.823Z,1.33
2022-07-29T20:06:34.448Z,1.40
2022-07-29T20:09:00.927Z,1.65
2022-07-29T20:11:29.664Z,1.45
2022-07-29T20:13:56.247Z,1.73
2022-07-29T20:16:22.794Z,1.13
2022-07-29T20:18:51.903Z,1.38
2022-07-29T20:21:18.433Z,1.50
2022-07-29T20:23:45.860Z,1.80
2022-07-29T20:26:12.719Z,1.35
2022-07-29T20:28:40.228Z,1.77
2022-07-29T20:31:06.839Z,1.38
2022-07-29T20:33:33.443Z,1.58
2022-07-29T20:35:59.960Z,0.82
2022-07-29T20:38:26.390Z,1.10
2022-07-29T20:40:55.614Z,1.52
2022-07-29T20:43:22.005Z,1.73
2022-07-29T20:45:48.829Z,1.67
2022-07-29T20:48:15.287Z,1.30
2022-07-29T20:50:42.776Z,1.35
2022-07-29T20:53:09.475Z,1.33
2022-07-29T20:55:35.916Z,0.95
2022-07-29T20:58:02.320Z,1.13
2022-07-29T21:00:29.755Z,1.00
2022-07-29T21:02:58.614Z,1.55
2022-07-29T21:05:25.212Z,0.85
2022-07-29T21:07:55.355Z,1.58
2022-07-29T21:10:24.268Z,1.67
2022-07-29T21:12:50.926Z,1.30
2022-07-29T21:15:20.526Z,0.93
2022-07-29T21:17:47.645Z,1.20
2022-07-29T21:20:18.756Z,1.10
2022-07-29T21:22:45.576Z,1.02
2022-07-29T21:25:12.174Z,1.50
2022-07-29T21:27:57.316Z,1.20
2022-07-29T21:30:23.793Z,1.30
2022-07-29T21:32:50.318Z,1.00
2022-07-29T21:35:35.957Z,1.25
2022-07-29T21:38:03.421Z,1.20
2022-07-29T21:40:30.399Z,1.63
2022-07-29T21:42:56.911Z,1.38
2022-07-29T21:45:25.167Z,2.30
2022-07-29T21:47:51.620Z,1.48
2022-07-29T21:50:18.302Z,1.40
2022-07-29T21:52:44.755Z,1.88
2022-07-29T21:55:11.754Z,1.05
2022-07-29T21:57:38.597Z,1.42
2022-07-29T22:00:06.536Z,0.82
2022-07-29T22:02:33.542Z,1.38
2022-07-29T22:05:00.019Z,1.20
2022-07-29T22:07:54.184Z,1.35
2022-07-29T22:10:13.257Z,1.58
2022-07-29T22:12:39.692Z,1.23
2022-07-29T22:15:06.613Z,1.52
2022-07-29T22:17:33.550Z,1.02
2022-07-29T22:20:00.368Z,1.40
2022-07-29T22:22:27.418Z,1.73
2022-07-29T22:24:53.992Z,1.35
2022-07-29T22:27:20.449Z,1.15
2022-07-29T22:29:48.507Z,1.48
2022-07-29T22:32:14.918Z,1.75
2022-07-29T22:34:41.381Z,1.75
2022-07-29T22:37:08.153Z,1.48
2022-07-29T22:39:35.307Z,1.20
2022-07-29T22:42:01.786Z,1.45
2022-07-29T22:44:28.222Z,1.55
2022-07-29T22:46:54.657Z,1.65
2022-07-29T22:49:21.148Z,1.50
2022-07-29T22:51:47.664Z,1.05
2022-07-29T22:54:14.124Z,2.08
2022-07-29T22:56:40.563Z,2.08
2022-07-29T22:59:07.755Z,1.23
2022-07-29T23:01:37.144Z,1.58
2022-07-29T23:04:04.649Z,1.92
2022-07-29T23:06:31.167Z,1.48
2022-07-29T23:08:57.638Z,1.35
2022-07-29T23:11:24.097Z,1.13
2022-07-29T23:13:51.632Z,2.05
2022-07-29T23:16:26.379Z,1.80
2022-07-29T23:18:55.061Z,1.60
2022-07-29T23:21:22.334Z,1.73
2022-07-29T23:23:49.910Z,1.10
2022-07-29T23:26:17.497Z,1.58
2022-07-29T23:28:46.559Z,1.63
2022-07-29T23:31:14.481Z,1.38
2022-07-29T23:33:42.137Z,1.85
2022-07-29T23:36:09.884Z,1.20
2022-07-29T23:38:41.263Z,1.05
2022-07-29T23:41:09.909Z,1.50
2022-07-29T23:43:37.517Z,1.67
2022-07-29T23:46:04.436Z,1.98
2022-07-29T23:48:32.893Z,1.55
2022-07-29T23:51:01.044Z,2.47
2022-07-29T23:53:28.417Z,1.27
2022-07-29T23:55:55.846Z,2.28
2022-07-29T23:58:22.611Z,1.98
